Time;durP1;ratioP1;P1;durP2;ratioP2;P2;SDS_P1;SDS_P2;PMS_P1;PMS_P2;Temp;Humidity;BMP_temperature;BMP_pressure;BME280_temperature;BME280_humidity;BME280_pressure;Samples;Min_cycle;Max_cycle;Signal;HPM_P1;HPM_P2
2022/12/13 00:01:12;;;;;;;;;;;-4.50;99.90;;;;;;5053547;28;20330;-65
2022/12/13 00:03:38;;;;;;;;;;;-4.60;99.90;;;;;;5053309;28;20396;-65
2022/12/13 00:06:05;;;;;;;;;;;-4.60;99.90;;;;;;5053716;28;19955;-64
2022/12/13 00:08:30;;;;;;;;;;;-4.70;99.90;;;;;;5053482;28;19909;-64
2022/12/13 00:10:59;;;;;;;;;;;-4.70;99.90;;;;;;5053687;28;19916;-64
2022/12/13 00:13:24;;;;;;;;;;;-4.80;99.90;;;;;;5053694;28;19909;-65
2022/12/13 00:15:57;;;;;;;;;;;-4.80;99.90;;;;;;5053436;28;19916;-65
2022/12/13 00:18:23;;;;;;;;;;;-4.90;99.90;;;;;;5053639;28;19913;-64
2022/12/13 00:20:49;;;;;;;;;;;-4.90;99.90;;;;;;5053330;28;20378;-64
2022/12/13 00:23:14;;;;;;;;;;;-4.90;99.90;;;;;;5053612;28;19920;-64
2022/12/13 00:25:39;;;;;;;;;;;-4.90;99.90;;;;;;5054010;28;19913;-65
2022/12/13 00:28:05;;;;;;;;;;;-5.00;99.90;;;;;;5057416;28;19919;-64
2022/12/13 00:30:31;;;;;;;;;;;-5.00;99.90;;;;;;5057336;28;19963;-64
2022/12/13 00:32:56;;;;;;;;;;;-5.00;99.90;;;;;;5057261;28;19909;-64
2022/12/13 00:35:22;;;;;;;;;;;-5.10;99.90;;;;;;5057262;28;20419;-64
2022/12/13 00:37:47;;;;;;;;;;;-5.10;99.90;;;;;;5057414;28;19909;-64
2022/12/13 00:40:12;;;;;;;;;;;-5.10;99.90;;;;;;5057403;28;19909;-64
2022/12/13 00:42:38;;;;;;;;;;;-5.10;99.90;;;;;;5057348;28;20347;-65
2022/12/13 00:45:03;;;;;;;;;;;-5.20;99.90;;;;;;5057012;28;20029;-64
2022/12/13 00:47:29;;;;;;;;;;;-5.20;99.90;;;;;;5057013;28;19909;-64
2022/12/13 00:49:54;;;;;;;;;;;-5.30;99.90;;;;;;5056951;28;19913;-64
2022/12/13 00:52:23;;;;;;;;;;;-5.30;99.90;;;;;;5039101;28;19916;-65
2022/12/13 00:54:48;;;;;;;;;;;-5.40;99.90;;;;;;5056915;28;19971;-65
2022/12/13 00:57:14;;;;;;;;;;;-5.40;99.90;;;;;;5057107;28;19913;-65
2022/12/13 00:59:39;;;;;;;;;;;-5.40;99.90;;;;;;5057050;28;19909;-65
2022/12/13 01:02:05;;;;;;;;;;;-5.40;99.90;;;;;;5039251;28;20340;-64
2022/12/13 01:04:30;;;;;;;;;;;-5.40;99.90;;;;;;5056569;28;20007;-64
2022/12/13 01:06:56;;;;;;;;;;;-5.50;99.90;;;;;;5056633;28;20375;-65
2022/12/13 01:09:25;;;;;;;;;;;-5.40;99.90;;;;;;5056847;28;19913;-64
2022/12/13 01:11:54;;;;;;;;;;;-5.50;99.90;;;;;;5056825;28;19956;-65
2022/12/13 01:14:20;;;;;;;;;;;-5.50;99.90;;;;;;5056514;28;19995;-64
2022/12/13 01:16:45;;;;;;;;;;;-5.50;99.90;;;;;;5056450;28;20357;-65
2022/12/13 01:19:11;;;;;;;;;;;-5.50;99.90;;;;;;5056357;28;19916;-65
2022/12/13 01:21:36;;;;;;;;;;;-5.50;99.90;;;;;;5056365;28;19909;-65
2022/12/13 01:24:03;;;;;;;;;;;-5.50;99.90;;;;;;5056522;28;19909;-64
2022/12/13 01:26:28;;;;;;;;;;;-5.60;99.90;;;;;;5056286;28;20424;-64
2022/12/13 01:28:54;;;;;;;;;;;-5.60;99.90;;;;;;5056241;28;20007;-64
2022/12/13 01:31:19;;;;;;;;;;;-5.60;99.90;;;;;;5056156;28;20302;-64
2022/12/13 01:33:45;;;;;;;;;;;-5.60;99.90;;;;;;5056390;28;19917;-64
2022/12/13 01:36:12;;;;;;;;;;;-5.60;99.90;;;;;;5038390;28;19915;-65
2022/12/13 01:38:37;;;;;;;;;;;-5.70;99.90;;;;;;5056097;28;19909;-65
2022/12/13 01:41:03;;;;;;;;;;;-5.70;99.90;;;;;;5056150;28;19909;-65
2022/12/13 01:43:38;;;;;;;;;;;-5.70;99.90;;;;;;5056211;28;19916;-64
2022/12/13 01:46:03;;;;;;;;;;;-5.70;99.90;;;;;;5055879;28;19920;-65
2022/12/13 01:48:32;;;;;;;;;;;-5.70;99.90;;;;;;5055827;28;19909;-65
2022/12/13 01:51:00;;;;;;;;;;;-5.80;99.90;;;;;;5055750;28;19916;-64
2022/12/13 01:53:27;;;;;;;;;;;-5.80;99.90;;;;;;5055733;28;19916;-64
2022/12/13 01:55:55;;;;;;;;;;;-5.80;99.90;;;;;;5055739;28;19916;-64
2022/12/13 01:58:21;;;;;;;;;;;-5.80;99.90;;;;;;5055943;28;19909;-64
2022/12/13 02:00:47;;;;;;;;;;;-5.80;99.90;;;;;;5055889;28;20318;-65
2022/12/13 02:03:13;;;;;;;;;;;-5.80;99.90;;;;;;5055596;28;19917;-64
2022/12/13 02:05:40;;;;;;;;;;;-5.80;99.90;;;;;;5055308;28;19921;-65
2022/12/13 02:08:07;;;;;;;;;;;-5.80;99.90;;;;;;5055725;28;20061;-64
2022/12/13 02:10:33;;;;;;;;;;;-5.80;99.90;;;;;;5055719;28;19909;-65
2022/12/13 02:12:58;;;;;;;;;;;-5.80;99.90;;;;;;5055389;28;19986;-64
2022/12/13 02:15:27;;;;;;;;;;;-5.80;99.90;;;;;;5055622;28;19913;-64
2022/12/13 02:18:02;;;;;;;;;;;-5.80;99.90;;;;;;5055358;28;19913;-65
2022/12/13 02:20:48;;;;;;;;;;;-5.80;99.90;;;;;;5055548;28;19913;-64
2022/12/13 02:23:33;;;;;;;;;;;-5.90;99.90;;;;;;5055101;28;20353;-65
2022/12/13 02:26:12;;;;;;;;;;;-5.90;99.90;;;;;;5054852;28;19928;-64
2022/12/13 02:28:58;;;;;;;;;;;-5.90;99.90;;;;;;5055366;28;19915;-65
2022/12/13 02:31:28;;;;;;;;;;;-5.90;99.90;;;;;;5054969;28;19916;-64
2022/12/13 02:34:01;;;;;;;;;;;-5.90;99.90;;;;;;5037501;28;19956;-64
2022/12/13 02:36:39;;;;;;;;;;;-5.90;99.90;;;;;;5055196;28;19909;-65
2022/12/13 02:39:09;;;;;;;;;;;-5.90;99.90;;;;;;5054969;28;19909;-64
2022/12/13 02:41:45;;;;;;;;;;;-6.00;99.90;;;;;;5054911;28;19959;-64
2022/12/13 02:44:17;;;;;;;;;;;-6.00;99.90;;;;;;5054975;28;19932;-65
2022/12/13 02:46:48;;;;;;;;;;;-6.00;99.90;;;;;;5055044;28;19915;-64
2022/12/13 02:49:15;;;;;;;;;;;-5.90;99.90;;;;;;5054119;28;19955;-64
2022/12/13 02:51:41;;;;;;;;;;;-6.00;99.90;;;;;;5054918;28;19909;-65
2022/12/13 02:54:07;;;;;;;;;;;-6.00;99.90;;;;;;5054699;28;19915;-64
2022/12/13 02:56:33;;;;;;;;;;;-6.00;99.90;;;;;;5054641;28;19909;-65
2022/12/13 02:59:00;;;;;;;;;;;-6.10;99.90;;;;;;5054783;28;19909;-64
2022/12/13 03:01:35;;;;;;;;;;;-6.10;99.90;;;;;;5054745;28;19916;-65
2022/12/13 03:04:06;;;;;;;;;;;-6.10;99.90;;;;;;5054393;28;19921;-64
2022/12/13 03:06:52;;;;;;;;;;;-6.00;99.90;;;;;;5054655;28;19908;-64
2022/12/13 03:09:37;;;;;;;;;;;-6.00;99.90;;;;;;5054212;28;19909;-65
2022/12/13 03:14:59;;;;;;;;;;;-5.90;99.90;;;;;;5054034;28;19977;-65
2022/12/13 03:17:25;;;;;;;;;;;-5.90;99.90;;;;;;5054189;28;19916;-65
2022/12/13 03:19:51;;;;;;;;;;;-5.90;99.90;;;;;;5054149;28;19909;-64
2022/12/13 03:22:17;;;;;;;;;;;-5.90;99.90;;;;;;5054105;28;19909;-64
2022/12/13 03:24:42;;;;;;;;;;;-5.90;99.90;;;;;;5036129;28;19919;-65
2022/12/13 03:27:08;;;;;;;;;;;-5.90;99.90;;;;;;5054037;28;19952;-64
2022/12/13 03:29:33;;;;;;;;;;;-6.00;99.90;;;;;;5053986;28;19909;-64
2022/12/13 03:31:58;;;;;;;;;;;-6.10;99.90;;;;;;5053926;28;19909;-64
2022/12/13 03:34:24;;;;;;;;;;;-6.10;99.90;;;;;;5054157;28;19988;-64
2022/12/13 03:36:50;;;;;;;;;;;-6.20;99.90;;;;;;5036039;28;19908;-64
2022/12/13 03:39:16;;;;;;;;;;;-6.20;99.90;;;;;;5053826;28;19920;-64
2022/12/13 03:41:42;;;;;;;;;;;-6.20;99.90;;;;;;5053779;28;19913;-65
2022/12/13 03:44:07;;;;;;;;;;;-6.20;99.90;;;;;;5053914;28;19958;-64
2022/12/13 03:46:33;;;;;;;;;;;-6.20;99.90;;;;;;5053697;28;20420;-64
2022/12/13 03:48:58;;;;;;;;;;;-6.20;99.90;;;;;;5053737;28;19931;-64
2022/12/13 03:51:24;;;;;;;;;;;-6.20;99.90;;;;;;5053649;28;19909;-64
2022/12/13 03:53:49;;;;;;;;;;;-6.20;99.90;;;;;;5053604;28;19999;-64
2022/12/13 03:56:15;;;;;;;;;;;-6.30;99.90;;;;;;5053587;28;20033;-64
2022/12/13 03:58:41;;;;;;;;;;;-6.30;99.90;;;;;;5053595;28;19913;-65
2022/12/13 04:01:08;;;;;;;;;;;-6.30;99.90;;;;;;5053638;28;19915;-64
2022/12/13 04:03:34;;;;;;;;;;;-6.40;99.90;;;;;;5053317;28;19909;-64
2022/12/13 04:05:59;;;;;;;;;;;-6.40;99.90;;;;;;5053408;28;20003;-65
2022/12/13 04:08:25;;;;;;;;;;;-6.30;99.90;;;;;;5053497;28;19956;-64
2022/12/13 04:10:50;;;;;;;;;;;-6.30;99.90;;;;;;5053452;28;19916;-65
2022/12/13 04:13:47;;;;;;;;;;;-6.30;99.90;;;;;;5053688;28;19912;-65
2022/12/13 04:16:01;;;;;;;;;;;-6.20;99.90;;;;;;5053230;28;19955;-64
2022/12/13 04:18:27;;;;;;;;;;;-6.20;99.90;;;;;;5053362;28;19909;-64
2022/12/13 04:20:52;;;;;;;;;;;-6.20;99.90;;;;;;5053416;28;19962;-64
2022/12/13 04:23:18;;;;;;;;;;;-6.30;99.90;;;;;;5053566;28;19909;-64
2022/12/13 04:25:43;;;;;;;;;;;-6.30;99.90;;;;;;5053259;28;20018;-64
2022/12/13 04:28:09;;;;;;;;;;;-6.30;99.90;;;;;;5053312;28;19916;-64
2022/12/13 04:30:35;;;;;;;;;;;-6.30;99.90;;;;;;5053553;28;19959;-64
2022/12/13 04:33:00;;;;;;;;;;;-6.30;99.90;;;;;;5053546;28;19958;-64
2022/12/13 04:35:26;;;;;;;;;;;-6.30;99.90;;;;;;5053244;28;19917;-64
2022/12/13 04:37:52;;;;;;;;;;;-6.40;99.90;;;;;;5053489;28;19946;-64
2022/12/13 04:40:17;;;;;;;;;;;-6.40;99.90;;;;;;5053198;28;19909;-65
2022/12/13 04:42:43;;;;;;;;;;;-6.40;99.90;;;;;;5053189;28;20327;-64
2022/12/13 04:45:13;;;;;;;;;;;-6.50;99.90;;;;;;5053325;28;19913;-64
2022/12/13 04:47:39;;;;;;;;;;;-6.50;99.90;;;;;;5053095;28;19909;-64
2022/12/13 04:50:04;;;;;;;;;;;-6.50;99.90;;;;;;5053361;28;19909;-64
2022/12/13 04:52:30;;;;;;;;;;;-6.60;99.90;;;;;;5053326;28;19959;-64
2022/12/13 04:54:55;;;;;;;;;;;-6.60;99.90;;;;;;5053307;28;19919;-65
2022/12/13 04:57:21;;;;;;;;;;;-6.60;99.90;;;;;;5053040;28;20286;-64
2022/12/13 04:59:46;;;;;;;;;;;-6.60;99.90;;;;;;5053244;28;20004;-64
2022/12/13 05:02:12;;;;;;;;;;;-6.70;99.90;;;;;;5053236;28;19913;-65
2022/12/13 05:04:37;;;;;;;;;;;-6.70;99.90;;;;;;5052705;28;19927;-64
2022/12/13 05:07:03;;;;;;;;;;;-6.70;99.90;;;;;;5053214;28;19915;-64
2022/12/13 05:09:29;;;;;;;;;;;-6.70;99.90;;;;;;5053184;28;19909;-64
2022/12/13 05:11:54;;;;;;;;;;;-6.80;99.90;;;;;;5054019;28;19948;-64
2022/12/13 05:14:20;;;;;;;;;;;-6.80;99.90;;;;;;5056535;28;19963;-64
2022/12/13 05:16:45;;;;;;;;;;;-6.80;99.90;;;;;;5056757;28;19913;-65
2022/12/13 05:19:11;;;;;;;;;;;-6.80;99.90;;;;;;5056392;28;20370;-65
2022/12/13 05:21:36;;;;;;;;;;;-6.80;99.90;;;;;;5056326;28;19978;-64
2022/12/13 05:24:02;;;;;;;;;;;-6.90;99.90;;;;;;5056288;28;19909;-64
2022/12/13 05:26:27;;;;;;;;;;;-6.90;99.90;;;;;;5056435;28;19913;-64
2022/12/13 05:28:54;;;;;;;;;;;-6.90;99.90;;;;;;5056531;28;19908;-64
2022/12/13 05:31:20;;;;;;;;;;;-6.90;99.90;;;;;;5056239;28;19909;-64
2022/12/13 05:33:45;;;;;;;;;;;-6.90;99.90;;;;;;5055872;28;19923;-65
2022/12/13 05:36:11;;;;;;;;;;;-6.90;99.90;;;;;;5056091;28;19916;-65
2022/12/13 05:38:36;;;;;;;;;;;-6.90;99.90;;;;;;5056308;28;19912;-64
2022/12/13 05:41:02;;;;;;;;;;;-6.90;99.90;;;;;;5056289;28;19959;-64
2022/12/13 05:43:27;;;;;;;;;;;-6.90;99.90;;;;;;5055971;28;19909;-64
2022/12/13 05:45:53;;;;;;;;;;;-6.80;99.90;;;;;;5056086;28;19912;-64
2022/12/13 05:48:18;;;;;;;;;;;-6.80;99.90;;;;;;5055827;28;19916;-64
2022/12/13 05:50:44;;;;;;;;;;;-6.80;99.90;;;;;;5056084;28;20003;-65
2022/12/13 05:53:09;;;;;;;;;;;-6.80;99.90;;;;;;5056069;28;20007;-64
2022/12/13 05:55:36;;;;;;;;;;;-6.80;99.90;;;;;;5055701;28;19934;-64
2022/12/13 05:58:01;;;;;;;;;;;-6.80;99.90;;;;;;5055712;28;19916;-64
2022/12/13 06:00:26;;;;;;;;;;;-6.80;99.90;;;;;;5055653;28;20358;-64
2022/12/13 06:02:52;;;;;;;;;;;-6.90;99.90;;;;;;5055910;28;19940;-65
2022/12/13 06:05:17;;;;;;;;;;;-6.90;99.90;;;;;;5055340;28;19928;-65
2022/12/13 06:07:43;;;;;;;;;;;-6.80;99.90;;;;;;5055594;28;20022;-65
2022/12/13 06:10:09;;;;;;;;;;;-6.80;99.90;;;;;;5055470;28;19916;-64
2022/12/13 06:12:34;;;;;;;;;;;-6.80;99.90;;;;;;5055461;28;19909;-64
2022/12/13 06:15:00;;;;;;;;;;;-6.80;99.90;;;;;;5055395;28;19915;-64
2022/12/13 06:17:34;;;;;;;;;;;-6.90;99.90;;;;;;5055303;28;19913;-64
2022/12/13 06:19:59;;;;;;;;;;;-6.90;99.90;;;;;;5055235;28;19909;-64
2022/12/13 06:22:25;;;;;;;;;;;-7.00;99.90;;;;;;5055499;28;19931;-64
2022/12/13 06:24:51;;;;;;;;;;;-7.00;99.90;;;;;;5055406;28;19919;-64
2022/12/13 06:27:17;;;;;;;;;;;-6.90;99.90;;;;;;5037279;28;19916;-65
2022/12/13 06:29:42;;;;;;;;;;;-6.90;99.90;;;;;;5055338;28;19909;-65
2022/12/13 06:32:08;;;;;;;;;;;-6.90;99.90;;;;;;5055056;28;19908;-64
2022/12/13 06:34:34;;;;;;;;;;;-7.00;99.90;;;;;;5055207;28;19955;-64
2022/12/13 06:37:00;;;;;;;;;;;-6.90;99.90;;;;;;5037402;28;19909;-64
2022/12/13 06:39:25;;;;;;;;;;;-6.90;99.90;;;;;;5054899;28;20359;-65
2022/12/13 06:41:51;;;;;;;;;;;-6.90;99.90;;;;;;5054793;28;19999;-64
2022/12/13 06:44:16;;;;;;;;;;;-6.90;99.90;;;;;;5054643;28;19909;-65
2022/12/13 06:46:42;;;;;;;;;;;-7.00;99.90;;;;;;5054923;28;19962;-65
2022/12/13 06:49:07;;;;;;;;;;;-7.00;99.90;;;;;;5054887;28;19915;-64
2022/12/13 06:51:33;;;;;;;;;;;-7.00;99.90;;;;;;5054712;28;19944;-64
2022/12/13 06:54:00;;;;;;;;;;;-7.00;99.90;;;;;;5054898;28;19948;-64
2022/12/13 06:56:26;;;;;;;;;;;-6.90;99.90;;;;;;5054860;28;20064;-64
2022/12/13 06:58:51;;;;;;;;;;;-7.00;99.90;;;;;;5054744;28;20386;-64
2022/12/13 07:01:17;;;;;;;;;;;-7.00;99.90;;;;;;5054716;28;19912;-64
2022/12/13 07:03:43;;;;;;;;;;;-7.00;99.90;;;;;;5054206;28;19944;-65
2022/12/13 07:06:13;;;;;;;;;;;-7.00;99.90;;;;;;5054468;28;20327;-64
2022/12/13 07:08:39;;;;;;;;;;;-7.00;99.90;;;;;;5036440;28;19962;-65
2022/12/13 07:11:04;;;;;;;;;;;-7.00;99.90;;;;;;5054232;28;19909;-64
2022/12/13 07:13:30;;;;;;;;;;;-7.00;99.90;;;;;;5053630;28;20000;-66
2022/12/13 07:15:55;;;;;;;;;;;-7.00;99.90;;;;;;5053907;28;19940;-64
2022/12/13 07:18:21;;;;;;;;;;;-7.00;99.90;;;;;;5051921;28;19916;-65
2022/12/13 07:20:46;;;;;;;;;;;-7.00;99.90;;;;;;5031671;28;19913;-65
2022/12/13 07:23:12;;;;;;;;;;;-7.00;99.90;;;;;;5031219;28;20007;-65
2022/12/13 07:25:38;;;;;;;;;;;-7.00;99.90;;;;;;5053715;28;19917;-64
2022/12/13 07:28:05;;;;;;;;;;;-6.90;99.90;;;;;;5053560;28;19920;-65
2022/12/13 07:30:32;;;;;;;;;;;-6.90;99.90;;;;;;5053382;28;19909;-65
2022/12/13 07:32:58;;;;;;;;;;;-6.90;99.90;;;;;;5052756;28;19912;-66
2022/12/13 07:35:23;;;;;;;;;;;-7.00;99.90;;;;;;5051420;28;19995;-64
2022/12/13 07:37:48;;;;;;;;;;;-6.90;99.90;;;;;;5052336;28;19912;-64
2022/12/13 07:40:14;;;;;;;;;;;-6.80;99.90;;;;;;5051765;28;19920;-65
2022/12/13 07:42:39;;;;;;;;;;;-6.70;99.90;;;;;;5052077;28;19999;-64
2022/12/13 07:45:05;;;;;;;;;;;-6.60;99.90;;;;;;5052444;28;19987;-65
2022/12/13 07:47:31;;;;;;;;;;;-6.50;99.90;;;;;;5051762;28;19913;-66
2022/12/13 07:49:56;;;;;;;;;;;-6.40;99.90;;;;;;5050421;28;19924;-64
2022/12/13 07:52:22;;;;;;;;;;;-6.30;99.90;;;;;;5052052;28;19960;-64
2022/12/13 07:54:47;;;;;;;;;;;-6.10;99.90;;;;;;5053309;28;20297;-65
2022/12/13 07:57:13;;;;;;;;;;;-5.80;99.90;;;;;;5052232;28;19913;-65
2022/12/13 07:59:38;;;;;;;;;;;-5.50;99.90;;;;;;5033999;28;19920;-65
2022/12/13 08:02:05;;;;;;;;;;;-5.10;99.90;;;;;;5049731;28;19920;-68
2022/12/13 08:04:31;;;;;;;;;;;-4.40;99.90;;;;;;5052749;28;19921;-65
2022/12/13 08:06:56;;;;;;;;;;;-3.60;99.90;;;;;;5051882;28;20062;-64
2022/12/13 08:09:22;;;;;;;;;;;-2.80;99.90;;;;;;5053293;28;19916;-64
2022/12/13 08:11:47;;;;;;;;;;;-2.60;99.90;;;;;;5052217;28;20301;-65
2022/12/13 08:14:13;;;;;;;;;;;-2.30;99.90;;;;;;5049702;28;19919;-65
2022/12/13 08:16:38;;;;;;;;;;;-1.70;99.90;;;;;;5052768;28;19999;-65
2022/12/13 08:19:04;;;;;;;;;;;-1.20;99.90;;;;;;5050034;28;21735;-64
2022/12/13 08:21:38;;;;;;;;;;;-0.70;99.90;;;;;;5052813;28;19908;-65
2022/12/13 08:24:04;;;;;;;;;;;-0.80;99.90;;;;;;5051877;28;19913;-67
2022/12/13 08:26:29;;;;;;;;;;;-0.60;99.90;;;;;;5052757;28;19913;-65
2022/12/13 08:28:55;;;;;;;;;;;-0.90;99.90;;;;;;5052072;28;19967;-65
2022/12/13 08:31:20;;;;;;;;;;;-0.90;99.90;;;;;;5051827;28;21137;-65
2022/12/13 08:33:47;;;;;;;;;;;-0.90;99.90;;;;;;5050784;28;19966;-65
2022/12/13 08:36:15;;;;;;;;;;;-1.20;99.90;;;;;;5051816;28;19992;-64
2022/12/13 08:38:41;;;;;;;;;;;-0.90;99.90;;;;;;5052127;28;19966;-65
2022/12/13 08:41:07;;;;;;;;;;;-0.90;99.90;;;;;;5053040;28;19920;-65
2022/12/13 08:43:33;;;;;;;;;;;-0.70;99.90;;;;;;5051968;28;19913;-65
2022/12/13 08:45:58;;;;;;;;;;;-0.50;99.90;;;;;;5052274;28;19969;-65
2022/12/13 08:48:24;;;;;;;;;;;0.30;99.90;;;;;;5053024;28;19912;-66
2022/12/13 08:50:49;;;;;;;;;;;1.10;99.90;;;;;;5054271;28;20382;-65
2022/12/13 08:53:15;;;;;;;;;;;1.60;99.90;;;;;;5055847;28;19916;-66
2022/12/13 08:55:40;;;;;;;;;;;2.20;99.90;;;;;;5054912;28;20004;-65
2022/12/13 08:58:07;;;;;;;;;;;2.50;99.90;;;;;;5056318;28;19917;-66
2022/12/13 09:00:33;;;;;;;;;;;2.20;99.90;;;;;;5055512;28;20057;-66
2022/12/13 09:02:58;;;;;;;;;;;2.70;99.90;;;;;;5055870;28;19917;-66
2022/12/13 09:05:24;;;;;;;;;;;2.40;99.90;;;;;;5055125;28;20015;-65
2022/12/13 09:07:53;;;;;;;;;;;2.40;99.90;;;;;;5037470;28;19919;-65
2022/12/13 09:10:19;;;;;;;;;;;2.60;99.90;;;;;;5054944;28;19986;-66
2022/12/13 09:12:45;;;;;;;;;;;2.80;99.90;;;;;;5056747;28;19908;-66
2022/12/13 09:15:10;;;;;;;;;;;2.60;99.90;;;;;;5056211;28;19912;-66
2022/12/13 09:17:36;;;;;;;;;;;2.50;99.90;;;;;;5055255;28;20333;-65
2022/12/13 09:20:01;;;;;;;;;;;2.80;99.90;;;;;;5054045;28;20378;-67
2022/12/13 09:22:27;;;;;;;;;;;3.50;99.90;;;;;;5051734;28;19974;-65
2022/12/13 09:24:52;;;;;;;;;;;3.80;99.90;;;;;;5056004;28;19917;-65
2022/12/13 09:27:18;;;;;;;;;;;4.00;99.90;;;;;;5054960;28;20390;-66
2022/12/13 09:29:45;;;;;;;;;;;3.60;99.90;;;;;;5056040;28;19913;-67
2022/12/13 09:32:10;;;;;;;;;;;3.90;99.90;;;;;;5055968;28;20381;-65
2022/12/13 09:34:36;;;;;;;;;;;4.10;99.90;;;;;;5056322;28;19913;-65
2022/12/13 09:37:01;;;;;;;;;;;4.00;99.90;;;;;;5056019;28;20323;-65
2022/12/13 09:39:26;;;;;;;;;;;4.30;99.90;;;;;;5055931;28;19912;-69
2022/12/13 09:41:54;;;;;;;;;;;4.40;99.90;;;;;;5055575;28;19908;-66
2022/12/13 09:44:25;;;;;;;;;;;4.80;99.90;;;;;;5055425;28;19936;-66
2022/12/13 09:46:51;;;;;;;;;;;4.60;99.90;;;;;;5055948;28;19915;-66
2022/12/13 09:49:22;;;;;;;;;;;4.90;99.90;;;;;;5055626;28;20329;-66
2022/12/13 09:51:49;;;;;;;;;;;6.00;99.90;;;;;;5055686;28;19936;-67
2022/12/13 09:54:17;;;;;;;;;;;5.90;99.90;;;;;;5055299;28;19909;-67
2022/12/13 09:56:42;;;;;;;;;;;5.90;99.90;;;;;;5037784;28;19912;-66
2022/12/13 09:59:11;;;;;;;;;;;5.10;99.90;;;;;;5054954;28;19993;-66
2022/12/13 10:01:36;;;;;;;;;;;5.30;99.90;;;;;;5055436;28;20010;-66
2022/12/13 10:04:02;;;;;;;;;;;5.00;99.90;;;;;;5055565;28;20382;-66
2022/12/13 10:06:30;;;;;;;;;;;5.70;99.90;;;;;;5037339;28;19966;-66
2022/12/13 10:08:56;;;;;;;;;;;5.70;99.90;;;;;;5055246;28;20004;-66
2022/12/13 10:11:23;;;;;;;;;;;5.20;99.90;;;;;;5054979;28;19913;-66
2022/12/13 10:13:59;;;;;;;;;;;5.60;99.90;;;;;;5055334;28;20393;-66
2022/12/13 10:16:27;;;;;;;;;;;5.40;99.90;;;;;;5055310;28;20011;-66
2022/12/13 10:18:53;;;;;;;;;;;5.90;99.90;;;;;;5054891;28;20011;-67
2022/12/13 10:21:25;;;;;;;;;;;6.20;99.90;;;;;;5055421;28;19971;-66
2022/12/13 10:23:51;;;;;;;;;;;6.20;99.90;;;;;;5054569;28;19919;-66
2022/12/13 10:26:16;;;;;;;;;;;6.30;99.90;;;;;;5055331;28;19917;-66
2022/12/13 10:28:42;;;;;;;;;;;6.00;99.90;;;;;;5054814;28;19916;-66
2022/12/13 10:31:14;;;;;;;;;;;5.80;99.90;;;;;;5055043;28;19963;-66
2022/12/13 10:33:43;;;;;;;;;;;5.60;99.90;;;;;;5054975;28;19956;-66
2022/12/13 10:36:14;;;;;;;;;;;6.00;99.90;;;;;;5036799;28;19913;-66
2022/12/13 10:38:41;;;;;;;;;;;5.70;99.90;;;;;;5054803;28;20295;-66
2022/12/13 10:41:26;;;;;;;;;;;5.80;99.90;;;;;;5054826;28;20393;-66
2022/12/13 10:44:11;;;;;;;;;;;6.10;99.90;;;;;;5054118;28;19934;-66
2022/12/13 10:46:39;;;;;;;;;;;6.80;99.90;;;;;;5054294;28;19923;-66
2022/12/13 10:49:15;;;;;;;;;;;6.30;99.90;;;;;;5054331;28;19920;-66
2022/12/13 10:51:40;;;;;;;;;;;6.20;99.90;;;;;;5054668;28;19916;-66
2022/12/13 10:54:12;;;;;;;;;;;5.90;99.90;;;;;;5053966;28;20370;-66
2022/12/13 10:56:41;;;;;;;;;;;5.80;99.90;;;;;;5054346;28;20367;-66
2022/12/13 10:59:09;;;;;;;;;;;6.40;99.90;;;;;;5053363;28;20336;-66
2022/12/13 11:01:35;;;;;;;;;;;6.10;99.90;;;;;;5054403;28;19909;-66
2022/12/13 11:04:02;;;;;;;;;;;5.80;99.90;;;;;;5053799;28;19943;-66
2022/12/13 11:06:44;;;;;;;;;;;5.90;99.90;;;;;;5054144;28;19916;-66
2022/12/13 11:09:29;;;;;;;;;;;5.70;99.90;;;;;;5052540;28;20329;-66
2022/12/13 11:11:56;;;;;;;;;;;5.80;99.90;;;;;;5054120;28;20007;-66
2022/12/13 11:14:24;;;;;;;;;;;5.50;99.90;;;;;;5054186;28;20370;-66
2022/12/13 11:16:51;;;;;;;;;;;5.20;99.90;;;;;;5053870;28;20347;-66
2022/12/13 11:19:22;;;;;;;;;;;4.60;99.90;;;;;;5054069;28;19962;-66
2022/12/13 11:21:49;;;;;;;;;;;4.60;99.90;;;;;;5054134;28;19948;-66
2022/12/13 11:24:20;;;;;;;;;;;4.20;99.90;;;;;;5036079;28;19944;-66
2022/12/13 11:26:47;;;;;;;;;;;3.90;99.90;;;;;;5054105;28;19972;-66
2022/12/13 11:29:21;;;;;;;;;;;3.80;99.90;;;;;;5054104;28;19908;-66
2022/12/13 11:32:06;;;;;;;;;;;3.60;99.90;;;;;;5054057;28;20374;-66
2022/12/13 11:34:38;;;;;;;;;;;3.00;99.90;;;;;;5053652;28;20371;-66
2022/12/13 11:37:11;;;;;;;;;;;2.60;99.90;;;;;;5054079;28;19916;-66
2022/12/13 11:39:39;;;;;;;;;;;2.50;99.90;;;;;;5036199;28;20007;-65
2022/12/13 11:42:14;;;;;;;;;;;2.40;99.90;;;;;;5053863;28;19916;-65
2022/12/13 11:44:44;;;;;;;;;;;2.20;99.90;;;;;;5053535;28;19934;-65
2022/12/13 11:47:13;;;;;;;;;;;2.10;99.90;;;;;;5053645;28;19915;-65
2022/12/13 11:49:39;;;;;;;;;;;1.90;99.90;;;;;;5053927;28;19915;-66
2022/12/13 11:52:11;;;;;;;;;;;1.70;99.90;;;;;;5053125;28;19915;-65
2022/12/13 11:54:42;;;;;;;;;;;1.20;99.90;;;;;;5053446;28;19924;-65
2022/12/13 11:57:12;;;;;;;;;;;1.20;99.90;;;;;;5053748;28;20371;-65
2022/12/13 11:59:47;;;;;;;;;;;1.30;99.90;;;;;;5053455;28;19932;-66
2022/12/13 12:02:32;;;;;;;;;;;1.40;99.90;;;;;;5053393;28;19909;-65
2022/12/13 12:05:01;;;;;;;;;;;1.60;99.90;;;;;;5053040;28;20398;-65
2022/12/13 12:07:47;;;;;;;;;;;1.50;99.90;;;;;;5053602;28;19913;-65
2022/12/13 12:12:57;;;;;;;;;;;1.50;99.90;;;;;;5091126;28;20378;-66
2022/12/13 12:15:25;;;;;;;;;;;1.50;99.90;;;;;;5091254;28;20263;-66
2022/12/13 12:17:50;;;;;;;;;;;1.50;99.90;;;;;;5091377;28;20325;-66
2022/12/13 12:20:23;;;;;;;;;;;1.50;99.90;;;;;;5091054;28;19908;-66
2022/12/13 12:22:58;;;;;;;;;;;1.50;99.90;;;;;;5091299;28;20320;-66
2022/12/13 12:25:29;;;;;;;;;;;1.50;99.90;;;;;;5091109;28;20285;-66
2022/12/13 12:28:07;;;;;;;;;;;1.40;99.90;;;;;;5090830;28;19915;-66
2022/12/13 12:30:40;;;;;;;;;;;1.40;99.90;;;;;;5090971;28;19962;-66
2022/12/13 12:33:25;;;;;;;;;;;1.40;99.90;;;;;;5091050;28;19912;-66
2022/12/13 12:36:10;;;;;;;;;;;1.30;99.90;;;;;;5090629;28;19908;-66
2022/12/13 12:38:56;;;;;;;;;;;1.10;99.90;;;;;;5089125;28;19916;-66
2022/12/13 12:41:41;;;;;;;;;;;0.90;99.90;;;;;;5090736;28;19999;-66
2022/12/13 12:44:27;;;;;;;;;;;0.70;99.90;;;;;;5090676;28;19909;-66
2022/12/13 12:46:57;;;;;;;;;;;0.60;99.90;;;;;;5090417;28;19908;-65
2022/12/13 12:49:43;;;;;;;;;;;0.50;99.90;;;;;;5090434;28;19908;-66
2022/12/13 12:52:28;;;;;;;;;;;0.40;99.90;;;;;;5090471;28;20393;-66
2022/12/13 12:55:03;;;;;;;;;;;0.50;99.90;;;;;;5090469;28;19923;-65
2022/12/13 13:00:23;;;;;;;;;;;0.50;99.90;;;;;;5071050;28;19913;-67
2022/12/13 13:03:08;;;;;;;;;;;0.40;99.90;;;;;;5071321;28;19919;-66
2022/12/13 13:05:39;;;;;;;;;;;0.60;99.90;;;;;;5070846;28;20405;-66
2022/12/13 13:08:17;;;;;;;;;;;0.60;99.90;;;;;;5070781;28;19909;-67
2022/12/13 13:10:42;;;;;;;;;;;0.50;99.90;;;;;;5070936;28;19939;-67
2022/12/13 13:13:28;;;;;;;;;;;0.60;99.90;;;;;;5070596;28;19912;-67
2022/12/13 13:15:54;;;;;;;;;;;0.60;99.90;;;;;;5070592;28;20408;-64
2022/12/13 13:18:40;;;;;;;;;;;0.50;99.90;;;;;;5070511;28;19920;-66
2022/12/13 13:21:26;;;;;;;;;;;0.50;99.90;;;;;;5070758;28;20286;-64
2022/12/13 13:26:44;;;;;;;;;;;0.40;99.90;;;;;;5108292;27;1859023;-66
2022/12/13 13:29:29;;;;;;;;;;;0.40;99.90;;;;;;5173617;27;20372;-66
2022/12/13 13:32:04;;;;;;;;;;;0.40;99.90;;;;;;5173411;27;19932;-66
2022/12/13 13:34:32;;;;;;;;;;;0.30;99.90;;;;;;5173729;27;20386;-66
2022/12/13 13:36:58;;;;;;;;;;;0.30;99.90;;;;;;5173407;27;19945;-66
2022/12/13 13:39:29;;;;;;;;;;;0.20;99.90;;;;;;5173414;27;19907;-66
2022/12/13 13:42:06;;;;;;;;;;;0.10;99.90;;;;;;5173601;27;19911;-65
2022/12/13 13:44:51;;;;;;;;;;;0.00;99.90;;;;;;5173378;27;19915;-65
2022/12/13 13:47:21;;;;;;;;;;;-0.10;99.90;;;;;;5173448;27;19911;-66
2022/12/13 13:50:06;;;;;;;;;;;-0.20;99.90;;;;;;5173103;27;19930;-65
2022/12/13 13:52:52;;;;;;;;;;;-0.20;99.90;;;;;;5172899;27;19911;-65
2022/12/13 13:55:23;;;;;;;;;;;-0.30;99.90;;;;;;5172889;27;20356;-66
2022/12/13 13:57:55;;;;;;;;;;;-0.40;99.90;;;;;;5154234;27;19914;-66
2022/12/13 14:00:31;;;;;;;;;;;-0.40;99.90;;;;;;5172909;27;19911;-66
2022/12/13 14:03:11;;;;;;;;;;;-0.50;99.90;;;;;;5173122;27;20287;-65
2022/12/13 14:05:57;;;;;;;;;;;-0.50;99.90;;;;;;5172625;27;20005;-65
2022/12/13 14:08:42;;;;;;;;;;;-0.60;99.90;;;;;;5172554;27;19952;-66
2022/12/13 14:11:16;;;;;;;;;;;-0.60;99.90;;;;;;5172448;27;19907;-66
2022/12/13 14:14:01;;;;;;;;;;;-0.60;99.90;;;;;;5172547;27;19907;-65
2022/12/13 14:16:47;;;;;;;;;;;-0.70;99.90;;;;;;5172243;27;19907;-66
2022/12/13 14:19:32;;;;;;;;;;;-0.70;99.90;;;;;;5172121;27;19914;-66
2022/12/13 14:24:44;;;;;;;;;;;-0.90;99.90;;;;;;5070898;28;19919;-66
2022/12/13 14:29:48;;;;;;;;;;;-1.00;99.90;;;;;;5070952;28;19912;-66
2022/12/13 14:32:19;;;;;;;;;;;-1.00;99.90;;;;;;5070891;28;20004;-65
2022/12/13 14:34:45;;;;;;;;;;;-1.10;99.90;;;;;;5070939;28;19916;-66
2022/12/13 14:37:29;;;;;;;;;;;-1.20;99.90;;;;;;5069449;28;19916;-65
2022/12/13 14:39:55;;;;;;;;;;;-1.30;99.90;;;;;;5071047;28;20252;-66
2022/12/13 14:42:28;;;;;;;;;;;-1.30;99.90;;;;;;5070886;28;19932;-65
2022/12/13 14:44:53;;;;;;;;;;;-1.40;99.90;;;;;;5070824;28;20346;-66
2022/12/13 14:47:19;;;;;;;;;;;-1.40;99.90;;;;;;5070797;28;19912;-66